CheckWX is a tool to help pilots better visualize weather data.  It is not intended as a substitute for an official pre-flight weather briefing.

04:52:53 UTC

LJLJ METAR
Ljubljana Jože Pučnik Airport
Ljubljana, Slovenia
Current

23 mins ago

LJLJ 020430Z VRB01KT 9999 FEW070 10/09 Q1016 NOSIG
Observed
Jun-2 @ 04:30 UTC
Wind
  • Variable at 1 KTS
Visibility
10,000+ meters
Flight Rules
VFR
Cloud Levels
  • Few at 7,000' AGL
Temperature
10°C / 50°F
Dewpoint
C / 48°F
Humidity
94%
Altimeter
30" Hg
Pressure
1015.92 hPa
Previous

53 mins ago

LJLJ 020400Z VRB01KT 9999 FEW070 09/08 Q1016 NOSIG
Observed
Jun-2 @ 04:00 UTC
Wind
  • Variable at 1 KTS
Visibility
10,000+ meters
Flight Rules
VFR
Cloud Levels
  • Few at 7,000' AGL
Temperature
C / 48°F
Dewpoint
C / 46°F
Humidity
94%
Altimeter
30" Hg
Pressure
1015.92 hPa
Previous

1 hour ago

LJLJ 020330Z VRB01KT 9999 FEW070 08/07 Q1016 NOSIG
Observed
Jun-2 @ 03:30 UTC
Wind
  • Variable at 1 KTS
Visibility
10,000+ meters
Flight Rules
VFR
Cloud Levels
  • Few at 7,000' AGL
Temperature
C / 46°F
Dewpoint
C / 45°F
Humidity
93%
Altimeter
30" Hg
Pressure
1015.92 hPa